Mariba, Kentucky
Current Conditions -  °F | °C
As of 6:10 PM on Friday 31 Oct 2014 (Local Time) from KSYM Reporting Station
Light Rain Light Rain  
Wind Chill: 31°   Ceiling: 1000
Heat Index: 37°   Visibility: 4mi
Dew Point: 36°   Wind: 9mph
Humidity: 93%   Direction: 320°NW
Pressure: 29.95"   Gusts: 21mph
Location:  37.9536°N, 83.6173°W
Report Text: KSYM 312210Z AUTO 32008G18KT 270V350 4SM -RA BKN010 OVC013 03/02 A2995 RMK AO2
Loading
Personal Weather Stations






























Interactive Weather Map
Tropical Storm Tracking
New forecast layout! Learn more

10-Day Weather Forecast

Advertisements
Track Severe Weather on mobile